Time;durP1;ratioP1;P1;durP2;ratioP2;P2;SDS_P1;SDS_P2;PMS_P1;PMS_P2;Temp;Humidity;BMP_temperature;BMP_pressure;BME280_temperature;BME280_humidity;BME280_pressure;Samples;Min_cycle;Max_cycle;Signal;HPM_P1;HPM_P2
2023/07/16 00:01:39;;;;;;;5.47;4.33;;;;;;;;;;4954979;28;20203;-64
2023/07/16 00:04:23;;;;;;;6.37;4.23;;;;;;;;;;4972451;28;20166;-64
2023/07/16 00:06:50;;;;;;;9.10;4.43;;;;;;;;;;4972901;28;20385;-64
2023/07/16 00:09:18;;;;;;;5.77;3.90;;;;;;;;;;4972488;28;20225;-64
2023/07/16 00:11:45;;;;;;;4.73;4.00;;;;;;;;;;4972250;28;20677;-65
2023/07/16 00:14:12;;;;;;;6.40;4.20;;;;;;;;;;4972313;28;20200;-64
2023/07/16 00:16:57;;;;;;;9.93;4.03;;;;;;;;;;4972430;28;20217;-64
2023/07/16 00:19:24;;;;;;;7.67;4.43;;;;;;;;;;4972192;28;20220;-64
2023/07/16 00:22:09;;;;;;;4.90;4.30;;;;;;;;;;4972354;28;20186;-64
2023/07/16 00:24:36;;;;;;;5.47;4.27;;;;;;;;;;4972557;28;20196;-64
2023/07/16 00:27:03;;;;;;;7.80;4.63;;;;;;;;;;4971748;28;20199;-64
2023/07/16 00:29:30;;;;;;;9.93;4.20;;;;;;;;;;4972356;28;20220;-64
2023/07/16 00:31:57;;;;;;;6.73;4.40;;;;;;;;;;4972180;28;20637;-64
2023/07/16 00:34:25;;;;;;;6.63;4.00;;;;;;;;;;4972247;28;20182;-64
2023/07/16 00:36:52;;;;;;;5.03;4.33;;;;;;;;;;4955383;28;20260;-64
2023/07/16 00:39:18;;;;;;;6.27;4.70;;;;;;;;;;4971984;28;20223;-64
2023/07/16 00:41:46;;;;;;;7.00;4.70;;;;;;;;;;4972099;28;20577;-64
2023/07/16 00:44:13;;;;;;;5.70;4.63;;;;;;;;;;4972532;28;20555;-64
2023/07/16 00:46:39;;;;;;;6.70;4.97;;;;;;;;;;4954533;28;20384;-64
2023/07/16 00:49:23;;;;;;;6.03;4.67;;;;;;;;;;4954461;28;20213;-64
2023/07/16 00:51:51;;;;;;;7.07;5.10;;;;;;;;;;4955001;28;20197;-64
2023/07/16 01:29:37;;;;;;;8.67;5.27;;;;;;;;;;4951922;29;20593;-71
2023/07/16 01:32:04;;;;;;;8.27;5.30;;;;;;;;;;4951236;29;20213;-72
2023/07/16 01:34:33;;;;;;;6.63;5.30;;;;;;;;;;4935119;29;20293;-71
2023/07/16 01:37:00;;;;;;;8.90;5.50;;;;;;;;;;4951578;29;20280;-72
2023/07/16 01:39:44;;;;;;;7.87;5.30;;;;;;;;;;4951672;29;20357;-72
2023/07/16 01:42:12;;;;;;;8.27;5.37;;;;;;;;;;4951570;29;20181;-72
2023/07/16 01:44:39;;;;;;;8.37;5.40;;;;;;;;;;4951725;29;20197;-71
2023/07/16 01:47:09;;;;;;;9.43;6.00;;;;;;;;;;4934416;29;20589;-72
2023/07/16 01:49:36;;;;;;;7.77;5.40;;;;;;;;;;4951510;29;20577;-71
2023/07/16 01:52:03;;;;;;;6.80;5.00;;;;;;;;;;4918337;29;20196;-72
2023/07/16 01:54:32;;;;;;;6.23;5.63;;;;;;;;;;4935163;29;20614;-71
2023/07/16 01:56:59;;;;;;;6.43;5.57;;;;;;;;;;4934159;29;20198;-72
2023/07/16 01:59:25;;;;;;;8.83;5.50;;;;;;;;;;4946683;28;20197;-71
2023/07/16 02:01:55;;;;;;;5.80;5.20;;;;;;;;;;4953166;28;20211;-71
2023/07/16 02:04:22;;;;;;;5.63;5.13;;;;;;;;;;4953206;28;20244;-71
2023/07/16 02:06:48;;;;;;;8.17;5.40;;;;;;;;;;4953739;28;20240;-71
2023/07/16 02:09:19;;;;;;;7.50;5.70;;;;;;;;;;4970459;28;21113;-71
2023/07/16 02:11:45;;;;;;;8.10;5.60;;;;;;;;;;4969818;28;20703;-71
2023/07/16 02:14:13;;;;;;;7.00;5.60;;;;;;;;;;4952879;28;20201;-71
2023/07/16 02:16:40;;;;;;;6.33;5.60;;;;;;;;;;4953000;28;20300;-72
2023/07/16 02:19:07;;;;;;;7.77;5.70;;;;;;;;;;4953085;28;20198;-71
2023/07/16 02:21:34;;;;;;;7.10;5.47;;;;;;;;;;4953431;28;20289;-72
2023/07/16 02:24:01;;;;;;;6.80;6.00;;;;;;;;;;4969934;28;20225;-71
2023/07/16 02:26:28;;;;;;;7.93;5.83;;;;;;;;;;4952806;28;20207;-71
2023/07/16 02:28:54;;;;;;;8.00;5.60;;;;;;;;;;4952688;28;20224;-71
2023/07/16 02:31:21;;;;;;;6.77;5.40;;;;;;;;;;4969944;28;20193;-71
2023/07/16 02:33:48;;;;;;;7.53;5.87;;;;;;;;;;4953158;28;20247;-71
2023/07/16 02:36:15;;;;;;;6.97;5.57;;;;;;;;;;4952941;28;20211;-70
2023/07/16 02:38:42;;;;;;;8.17;5.87;;;;;;;;;;4969360;28;20186;-70
2023/07/16 02:41:09;;;;;;;7.77;5.83;;;;;;;;;;4952552;28;20225;-70
2023/07/16 02:44:00;;;;;;;7.20;5.97;;;;;;;;;;4952589;28;20184;-70
2023/07/16 02:46:27;;;;;;;6.77;5.97;;;;;;;;;;4952542;28;20205;-70
2023/07/16 02:48:54;;;;;;;9.30;6.40;;;;;;;;;;4952671;28;20759;-70
2023/07/16 02:51:20;;;;;;;7.60;6.10;;;;;;;;;;4969567;28;20272;-70
2023/07/16 02:53:47;;;;;;;6.53;5.60;;;;;;;;;;4970074;28;20197;-72
2023/07/16 02:56:14;;;;;;;6.60;5.90;;;;;;;;;;4969810;28;20205;-71
2023/07/16 02:58:41;;;;;;;7.00;6.20;;;;;;;;;;4945437;29;20198;-71
2023/07/16 03:01:08;;;;;;;6.33;5.73;;;;;;;;;;4917540;29;20221;-72
2023/07/16 03:03:35;;;;;;;9.80;6.03;;;;;;;;;;4933078;29;20198;-72
2023/07/16 03:06:02;;;;;;;7.77;6.07;;;;;;;;;;4917425;29;20202;-71
2023/07/16 03:08:29;;;;;;;6.60;5.90;;;;;;;;;;4932854;29;20198;-71
2023/07/16 03:11:15;;;;;;;10.10;6.20;;;;;;;;;;4933173;29;20188;-71
2023/07/16 03:13:42;;;;;;;6.27;5.67;;;;;;;;;;4916960;29;20214;-71
2023/07/16 03:16:27;;;;;;;7.97;5.67;;;;;;;;;;4935879;29;20204;-71
2023/07/16 03:18:53;;;;;;;9.17;6.40;;;;;;;;;;4950984;29;20206;-71
2023/07/16 03:21:20;;;;;;;7.00;6.30;;;;;;;;;;4932904;29;20229;-71
2023/07/16 03:23:47;;;;;;;6.53;5.93;;;;;;;;;;4951111;28;20221;-73
2023/07/16 03:26:14;;;;;;;7.73;5.77;;;;;;;;;;4937274;29;20340;-72
2023/07/16 03:28:42;;;;;;;7.50;6.27;;;;;;;;;;4936203;29;20206;-72
2023/07/16 03:31:10;;;;;;;9.63;6.17;;;;;;;;;;4954300;29;20201;-72
2023/07/16 03:33:40;;;;;;;7.07;6.37;;;;;;;;;;4936785;29;20613;-72
2023/07/16 03:36:27;;;;;;;8.93;6.83;;;;;;;;;;4937108;29;20646;-72
2023/07/16 03:38:54;;;;;;;6.90;6.20;;;;;;;;;;4954041;29;20186;-72
2023/07/16 03:41:38;;;;;;;9.77;6.27;;;;;;;;;;4953587;29;20191;-72
2023/07/16 03:44:05;;;;;;;7.97;6.07;;;;;;;;;;4920621;29;20237;-73
2023/07/16 03:46:49;;;;;;;9.63;5.90;;;;;;;;;;4936557;29;20174;-72
2023/07/16 03:49:16;;;;;;;8.30;6.10;;;;;;;;;;4936483;29;20218;-72
2023/07/16 03:51:44;;;;;;;7.53;6.30;;;;;;;;;;4953744;29;20619;-72
2023/07/16 03:54:11;;;;;;;7.20;5.50;;;;;;;;;;4936373;29;20558;-72
2023/07/16 03:56:37;;;;;;;7.53;5.67;;;;;;;;;;4953541;29;20221;-72
2023/07/16 03:59:04;;;;;;;7.97;6.13;;;;;;;;;;4945621;28;20201;-72
2023/07/16 04:01:31;;;;;;;6.67;5.97;;;;;;;;;;4972977;28;20283;-73
2023/07/16 04:03:58;;;;;;;9.10;6.17;;;;;;;;;;4972741;28;20251;-72
2023/07/16 04:06:26;;;;;;;6.13;5.53;;;;;;;;;;4972934;28;20193;-72
2023/07/16 04:08:52;;;;;;;8.13;5.77;;;;;;;;;;4972701;28;20634;-71
2023/07/16 04:11:19;;;;;;;7.57;6.47;;;;;;;;;;4972279;28;20212;-69
2023/07/16 04:13:46;;;;;;;7.43;6.03;;;;;;;;;;4972532;28;20796;-70
2023/07/16 04:16:12;;;;;;;7.60;6.20;;;;;;;;;;4972496;28;20173;-70
2023/07/16 04:18:40;;;;;;;6.47;5.80;;;;;;;;;;4972599;28;20193;-70
2023/07/16 04:21:06;;;;;;;6.70;6.00;;;;;;;;;;4972543;28;20193;-70
2023/07/16 04:23:33;;;;;;;6.27;5.63;;;;;;;;;;4972285;28;20200;-71
2023/07/16 04:25:59;;;;;;;8.13;5.80;;;;;;;;;;4960913;28;20214;-69
2023/07/16 04:28:44;;;;;;;6.53;5.80;;;;;;;;;;4962762;28;20209;-68
2023/07/16 04:31:10;;;;;;;7.20;6.07;;;;;;;;;;4969822;28;20193;-68
2023/07/16 04:33:37;;;;;;;5.87;5.27;;;;;;;;;;4969939;28;20248;-69
2023/07/16 04:36:04;;;;;;;7.30;5.80;;;;;;;;;;4969657;28;20197;-67
2023/07/16 04:38:31;;;;;;;6.60;5.90;;;;;;;;;;4969869;28;20196;-67
2023/07/16 04:40:58;;;;;;;7.60;5.53;;;;;;;;;;4969731;28;20240;-68
2023/07/16 04:43:25;;;;;;;9.10;5.90;;;;;;;;;;4970001;28;20201;-67
2023/07/16 04:45:52;;;;;;;6.47;5.30;;;;;;;;;;4970156;28;20580;-68
2023/07/16 04:48:19;;;;;;;7.77;5.77;;;;;;;;;;4950722;29;20927;-67
2023/07/16 04:50:46;;;;;;;5.87;5.20;;;;;;;;;;4950680;29;20309;-67
2023/07/16 04:53:13;;;;;;;8.97;5.83;;;;;;;;;;4950814;29;20190;-67
2023/07/16 04:55:39;;;;;;;6.43;5.63;;;;;;;;;;4950625;29;20201;-67
2023/07/16 04:58:06;;;;;;;8.57;6.00;;;;;;;;;;4968721;28;20273;-67
2023/07/16 05:00:33;;;;;;;8.40;5.57;;;;;;;;;;4970458;28;20199;-67
2023/07/16 05:03:00;;;;;;;7.27;5.73;;;;;;;;;;4969548;28;20201;-67
2023/07/16 05:05:27;;;;;;;6.70;5.50;;;;;;;;;;4969530;28;20197;-67
2023/07/16 05:07:53;;;;;;;7.40;5.60;;;;;;;;;;4969893;28;20190;-67
2023/07/16 05:10:38;;;;;;;6.90;5.53;;;;;;;;;;4969902;28;20212;-67
2023/07/16 05:13:04;;;;;;;6.77;6.07;;;;;;;;;;4969698;28;20199;-67
2023/07/16 05:15:32;;;;;;;6.77;6.17;;;;;;;;;;4970191;28;20205;-67
2023/07/16 05:17:59;;;;;;;7.50;5.83;;;;;;;;;;4969552;28;20237;-67
2023/07/16 05:20:26;;;;;;;6.13;5.53;;;;;;;;;;4969064;28;20836;-67
2023/07/16 05:23:10;;;;;;;6.53;5.93;;;;;;;;;;4969359;28;20208;-68
2023/07/16 05:25:36;;;;;;;6.27;5.67;;;;;;;;;;4969128;28;20252;-67
2023/07/16 05:28:03;;;;;;;7.70;5.93;;;;;;;;;;4959423;28;20890;-66
2023/07/16 05:30:30;;;;;;;6.13;5.53;;;;;;;;;;4969251;28;20224;-67
2023/07/16 05:32:57;;;;;;;7.60;6.13;;;;;;;;;;4969094;28;20198;-67
2023/07/16 05:35:41;;;;;;;7.60;5.70;;;;;;;;;;4968822;28;20181;-67
2023/07/16 05:38:08;;;;;;;7.73;5.90;;;;;;;;;;4969220;28;20193;-67
2023/07/16 05:40:53;;;;;;;8.13;6.10;;;;;;;;;;4968873;28;20216;-68
2023/07/16 05:43:19;;;;;;;6.27;5.67;;;;;;;;;;4969019;28;20263;-68
2023/07/16 05:45:46;;;;;;;6.83;5.33;;;;;;;;;;4969339;28;20199;-67
2023/07/16 05:48:13;;;;;;;9.00;5.83;;;;;;;;;;4949673;29;20273;-67
2023/07/16 05:50:39;;;;;;;8.57;5.70;;;;;;;;;;4949541;29;20210;-66
2023/07/16 05:53:06;;;;;;;8.00;5.87;;;;;;;;;;4968460;28;20244;-66
2023/07/16 05:55:33;;;;;;;7.73;5.73;;;;;;;;;;4968796;28;20201;-67
2023/07/16 05:58:00;;;;;;;7.23;5.50;;;;;;;;;;4968606;28;20192;-67
2023/07/16 06:00:44;;;;;;;8.73;5.50;;;;;;;;;;4969218;28;20189;-67
2023/07/16 06:03:11;;;;;;;8.80;5.53;;;;;;;;;;4935913;28;20938;-67
2023/07/16 06:05:37;;;;;;;6.13;5.50;;;;;;;;;;4968962;28;20272;-66
2023/07/16 06:08:04;;;;;;;11.50;5.57;;;;;;;;;;4968495;28;20200;-66
2023/07/16 06:10:33;;;;;;;8.97;5.40;;;;;;;;;;4968505;28;20221;-66
2023/07/16 06:13:00;;;;;;;7.10;5.50;;;;;;;;;;4968029;28;20208;-66
2023/07/16 06:15:26;;;;;;;6.83;5.70;;;;;;;;;;4968609;28;20192;-67
2023/07/16 06:17:53;;;;;;;7.33;5.90;;;;;;;;;;4968628;28;20723;-66
2023/07/16 06:20:20;;;;;;;8.77;6.23;;;;;;;;;;4967856;28;20282;-67
2023/07/16 06:22:47;;;;;;;8.03;5.43;;;;;;;;;;4968347;28;20803;-67
2023/07/16 06:25:14;;;;;;;6.97;5.80;;;;;;;;;;4968345;28;20217;-67
2023/07/16 06:27:40;;;;;;;6.83;5.87;;;;;;;;;;4957769;28;20235;-67
2023/07/16 06:30:07;;;;;;;7.63;5.57;;;;;;;;;;4970706;28;20224;-67
2023/07/16 06:32:34;;;;;;;6.67;5.37;;;;;;;;;;4970505;28;21549;-67
2023/07/16 06:35:01;;;;;;;5.97;5.37;;;;;;;;;;4970664;28;20276;-66
2023/07/16 06:37:27;;;;;;;6.67;5.87;;;;;;;;;;4970718;28;20222;-66
2023/07/16 06:39:54;;;;;;;8.90;5.10;;;;;;;;;;4970741;28;20252;-67
2023/07/16 06:42:21;;;;;;;6.90;5.07;;;;;;;;;;4970852;28;20216;-67
2023/07/16 06:44:48;;;;;;;5.30;4.70;;;;;;;;;;4951083;28;20221;-66
2023/07/16 06:47:15;;;;;;;7.53;4.87;;;;;;;;;;4970407;28;20182;-67
2023/07/16 06:49:42;;;;;;;6.93;4.90;;;;;;;;;;4970797;28;20212;-67
2023/07/16 06:52:18;;;;;;;6.70;4.53;;;;;;;;;;4970483;28;20186;-67
2023/07/16 06:54:45;;;;;;;7.93;4.90;;;;;;;;;;4971089;28;20189;-66
2023/07/16 06:57:11;;;;;;;5.07;4.57;;;;;;;;;;4970512;28;20630;-66
2023/07/16 06:59:38;;;;;;;5.07;4.27;;;;;;;;;;4970298;28;20189;-67
2023/07/16 07:02:05;;;;;;;6.20;4.60;;;;;;;;;;4969554;28;20217;-67
2023/07/16 07:04:32;;;;;;;6.27;4.80;;;;;;;;;;4970198;28;20189;-66
2023/07/16 07:06:58;;;;;;;5.53;4.27;;;;;;;;;;4969616;28;20197;-66
2023/07/16 07:09:25;;;;;;;5.10;4.60;;;;;;;;;;4970328;28;20668;-66
2023/07/16 07:11:52;;;;;;;4.80;4.33;;;;;;;;;;4969859;28;20194;-66
2023/07/16 07:14:19;;;;;;;5.97;4.60;;;;;;;;;;4970158;28;20199;-66
2023/07/16 07:17:03;;;;;;;7.23;4.40;;;;;;;;;;4969980;28;20185;-66
2023/07/16 07:19:32;;;;;;;5.40;4.90;;;;;;;;;;4970277;28;20665;-66
2023/07/16 07:22:16;;;;;;;8.17;4.97;;;;;;;;;;4969837;28;20174;-66
2023/07/16 07:24:46;;;;;;;6.53;5.17;;;;;;;;;;4970242;28;20225;-66
2023/07/16 07:27:13;;;;;;;5.93;5.20;;;;;;;;;;4924885;29;20238;-68
2023/07/16 07:29:40;;;;;;;6.00;5.40;;;;;;;;;;4948306;29;20197;-66
2023/07/16 07:32:07;;;;;;;8.13;5.37;;;;;;;;;;4951041;28;20282;-66
2023/07/16 07:34:34;;;;;;;5.97;5.30;;;;;;;;;;4947993;29;20274;-66
2023/07/16 07:37:01;;;;;;;6.90;5.17;;;;;;;;;;4957530;28;20608;-67
2023/07/16 07:39:27;;;;;;;6.40;4.93;;;;;;;;;;4967771;28;20259;-68
2023/07/16 07:41:54;;;;;;;6.93;4.77;;;;;;;;;;4967216;28;20284;-67
2023/07/16 07:44:21;;;;;;;7.23;5.10;;;;;;;;;;4952168;28;20895;-68
2023/07/16 07:46:47;;;;;;;5.43;4.30;;;;;;;;;;4968984;28;20197;-67
2023/07/16 07:49:32;;;;;;;5.17;4.00;;;;;;;;;;4969434;28;20173;-67
2023/07/16 07:51:59;;;;;;;5.20;4.00;;;;;;;;;;4968816;28;20213;-67
2023/07/16 07:54:26;;;;;;;8.53;4.10;;;;;;;;;;4969439;28;20682;-67
2023/07/16 07:56:55;;;;;;;6.00;3.87;;;;;;;;;;4968988;28;20283;-67
2023/07/16 07:59:22;;;;;;;5.20;3.33;;;;;;;;;;4968666;28;20210;-67
2023/07/16 08:02:06;;;;;;;7.53;3.70;;;;;;;;;;4954386;28;20193;-67
2023/07/16 08:04:33;;;;;;;6.20;3.30;;;;;;;;;;4969253;28;20652;-67
2023/07/16 08:07:17;;;;;;;3.33;3.03;;;;;;;;;;4954634;28;20172;-67
2023/07/16 08:09:45;;;;;;;3.97;3.10;;;;;;;;;;4969694;28;20193;-67
2023/07/16 08:12:11;;;;;;;4.97;3.00;;;;;;;;;;4972891;28;20186;-67
2023/07/16 08:14:41;;;;;;;4.17;2.70;;;;;;;;;;4972840;28;20677;-67
2023/07/16 08:17:08;;;;;;;6.03;2.93;;;;;;;;;;4972502;28;20194;-67
2023/07/16 08:19:35;;;;;;;4.73;2.53;;;;;;;;;;4972784;28;20189;-66
2023/07/16 08:22:02;;;;;;;4.50;3.27;;;;;;;;;;4972090;28;20661;-66
2023/07/16 08:24:28;;;;;;;5.10;2.60;;;;;;;;;;4955946;28;20287;-66
2023/07/16 08:27:13;;;;;;;3.87;2.73;;;;;;;;;;4972361;28;20176;-66
2023/07/16 08:29:39;;;;;;;5.37;2.80;;;;;;;;;;4972292;28;20200;-66
2023/07/16 08:32:07;;;;;;;3.77;3.40;;;;;;;;;;4972091;28;20192;-67
2023/07/16 08:34:36;;;;;;;5.07;2.90;;;;;;;;;;4972321;28;20254;-67
2023/07/16 08:37:02;;;;;;;3.33;2.93;;;;;;;;;;4971984;28;20210;-66
2023/07/16 08:39:47;;;;;;;4.60;3.00;;;;;;;;;;4954944;28;20782;-66
2023/07/16 08:42:16;;;;;;;3.47;2.87;;;;;;;;;;4955122;28;20746;-66
2023/07/16 08:45:00;;;;;;;3.30;3.00;;;;;;;;;;4957339;28;20195;-66
2023/07/16 08:47:27;;;;;;;3.73;2.93;;;;;;;;;;4954878;28;20592;-66
2023/07/16 08:49:55;;;;;;;4.80;3.10;;;;;;;;;;4954396;28;20573;-66
2023/07/16 08:52:22;;;;;;;3.77;2.77;;;;;;;;;;4971533;28;20696;-66
2023/07/16 08:54:49;;;;;;;4.07;3.00;;;;;;;;;;4971855;28;20188;-66
2023/07/16 08:57:33;;;;;;;3.37;2.90;;;;;;;;;;4957380;28;20645;-66
2023/07/16 09:00:00;;;;;;;5.63;3.00;;;;;;;;;;4954569;28;20209;-66
2023/07/16 09:02:44;;;;;;;4.00;3.00;;;;;;;;;;4952007;29;20182;-66
2023/07/16 09:05:11;;;;;;;3.03;2.57;;;;;;;;;;4952528;29;20223;-66
2023/07/16 09:07:58;;;;;;;3.00;2.70;;;;;;;;;;4938059;29;20226;-66
2023/07/16 09:10:26;;;;;;;3.00;2.70;;;;;;;;;;4951908;29;20203;-66
2023/07/16 09:13:10;;;;;;;4.07;2.93;;;;;;;;;;4952481;29;20188;-66
2023/07/16 09:15:38;;;;;;;3.40;3.10;;;;;;;;;;4952683;29;20179;-66
2023/07/16 09:18:05;;;;;;;2.97;2.73;;;;;;;;;;4951728;29;20204;-66
2023/07/16 09:20:32;;;;;;;3.87;2.80;;;;;;;;;;4952123;28;20274;-66
2023/07/16 09:22:59;;;;;;;3.50;3.07;;;;;;;;;;4951136;29;20198;-66
2023/07/16 09:25:43;;;;;;;5.83;3.07;;;;;;;;;;4951516;29;20995;-66
2023/07/16 09:28:10;;;;;;;4.10;3.10;;;;;;;;;;4954864;28;20574;-66
2023/07/16 09:30:55;;;;;;;4.10;3.00;;;;;;;;;;4971776;28;20264;-66
2023/07/16 09:33:25;;;;;;;3.13;2.83;;;;;;;;;;4971024;28;20291;-66
2023/07/16 09:36:10;;;;;;;3.37;3.07;;;;;;;;;;4963939;28;20810;-71
2023/07/16 09:38:37;;;;;;;3.70;3.00;;;;;;;;;;4931559;29;20207;-72
2023/07/16 09:41:05;;;;;;;4.83;3.03;;;;;;;;;;4959388;28;20955;-70
2023/07/16 09:43:32;;;;;;;3.90;3.00;;;;;;;;;;4951623;28;20193;-69
2023/07/16 09:46:00;;;;;;;4.43;3.00;;;;;;;;;;4968408;28;20237;-71
2023/07/16 09:48:45;;;;;;;3.40;3.07;;;;;;;;;;4969147;28;20198;-70
2023/07/16 09:51:12;;;;;;;4.67;3.10;;;;;;;;;;4969671;28;20214;-70
2023/07/16 09:53:40;;;;;;;5.87;3.10;;;;;;;;;;4952027;28;20178;-69
2023/07/16 09:56:08;;;;;;;5.03;3.30;;;;;;;;;;4952288;28;20288;-68
2023/07/16 09:58:35;;;;;;;7.03;3.53;;;;;;;;;;4951860;28;20174;-71
2023/07/16 10:01:02;;;;;;;3.80;3.00;;;;;;;;;;4952412;28;20232;-69
2023/07/16 10:03:29;;;;;;;3.70;3.10;;;;;;;;;;4952694;28;20257;-70
2023/07/16 10:06:05;;;;;;;4.63;3.47;;;;;;;;;;4969055;28;20224;-70
2023/07/16 10:08:34;;;;;;;4.97;3.57;;;;;;;;;;4969287;28;20193;-69
2023/07/16 10:11:02;;;;;;;5.80;3.40;;;;;;;;;;4968318;28;20708;-69
2023/07/16 10:13:29;;;;;;;3.60;3.30;;;;;;;;;;4952420;28;20213;-68
2023/07/16 10:15:56;;;;;;;3.80;3.30;;;;;;;;;;4969214;28;20553;-70
2023/07/16 10:18:27;;;;;;;5.27;3.47;;;;;;;;;;4968786;28;20190;-70
2023/07/16 10:20:59;;;;;;;5.27;3.17;;;;;;;;;;4951745;28;20203;-68
2023/07/16 10:23:35;;;;;;;4.20;3.03;;;;;;;;;;4967898;28;20241;-70
2023/07/16 10:26:06;;;;;;;3.10;2.80;;;;;;;;;;4967857;28;20251;-69
2023/07/16 10:28:33;;;;;;;3.50;3.13;;;;;;;;;;4950526;28;20289;-68
2023/07/16 10:31:00;;;;;;;3.17;2.73;;;;;;;;;;4968442;28;20272;-68
2023/07/16 10:33:27;;;;;;;3.60;2.90;;;;;;;;;;4968670;28;20189;-68
2023/07/16 10:36:17;;;;;;;3.13;2.43;;;;;;;;;;4968151;28;20280;-69
2023/07/16 10:38:45;;;;;;;2.87;2.67;;;;;;;;;;4968063;28;20653;-69
2023/07/16 10:41:12;;;;;;;4.63;2.70;;;;;;;;;;4953225;28;20234;-69
2023/07/16 10:43:38;;;;;;;4.13;2.50;;;;;;;;;;4948911;29;20198;-69
2023/07/16 10:46:05;;;;;;;3.37;2.63;;;;;;;;;;4962915;28;20612;-67
2023/07/16 10:48:32;;;;;;;4.27;2.73;;;;;;;;;;4967956;28;20601;-68
2023/07/16 10:51:00;;;;;;;3.30;2.70;;;;;;;;;;4968132;28;20214;-69
2023/07/16 10:53:26;;;;;;;3.00;2.60;;;;;;;;;;4968337;28;20229;-68
2023/07/16 10:55:53;;;;;;;3.40;3.00;;;;;;;;;;4967766;28;20813;-69
2023/07/16 10:58:20;;;;;;;3.40;3.10;;;;;;;;;;4967990;28;20297;-67
2023/07/16 11:00:47;;;;;;;3.03;2.77;;;;;;;;;;4951132;28;20194;-67
2023/07/16 11:03:31;;;;;;;4.10;3.10;;;;;;;;;;4953751;28;20823;-68
2023/07/16 11:05:58;;;;;;;4.77;3.27;;;;;;;;;;4950976;28;20209;-68
2023/07/16 11:08:25;;;;;;;3.63;3.20;;;;;;;;;;4968010;28;20564;-66
2023/07/16 11:10:55;;;;;;;4.60;3.27;;;;;;;;;;4967184;28;20209;-67
2023/07/16 11:13:40;;;;;;;3.57;2.93;;;;;;;;;;4950795;28;20193;-67
2023/07/16 11:16:08;;;;;;;4.80;3.10;;;;;;;;;;4967504;28;20200;-67
2023/07/16 11:18:35;;;;;;;3.57;3.17;;;;;;;;;;4965105;28;20193;-68
2023/07/16 11:21:02;;;;;;;5.83;2.97;;;;;;;;;;4950438;28;20205;-67
2023/07/16 11:23:29;;;;;;;3.43;2.80;;;;;;;;;;4950692;28;20197;-68
2023/07/16 11:25:56;;;;;;;2.93;2.70;;;;;;;;;;4966674;28;20260;-67
2023/07/16 11:28:23;;;;;;;4.27;3.20;;;;;;;;;;4966448;28;20264;-66
2023/07/16 11:30:50;;;;;;;4.57;3.13;;;;;;;;;;4966611;28;20205;-66
2023/07/16 11:33:16;;;;;;;4.00;3.00;;;;;;;;;;4966812;28;20193;-68
2023/07/16 11:35:43;;;;;;;3.53;2.70;;;;;;;;;;4966220;28;20983;-67
2023/07/16 11:38:30;;;;;;;4.33;2.70;;;;;;;;;;4952152;28;20193;-67
2023/07/16 11:41:00;;;;;;;4.33;3.50;;;;;;;;;;4945641;28;20678;-66
2023/07/16 11:43:26;;;;;;;3.73;2.87;;;;;;;;;;4947943;29;20245;-66
2023/07/16 11:45:53;;;;;;;3.23;2.70;;;;;;;;;;4946923;28;20224;-65
2023/07/16 11:48:20;;;;;;;2.90;2.70;;;;;;;;;;4971423;28;20186;-65
2023/07/16 11:51:04;;;;;;;4.67;2.70;;;;;;;;;;4970588;28;20688;-65
2023/07/16 11:53:31;;;;;;;6.50;3.17;;;;;;;;;;4968481;28;20244;-65
2023/07/16 11:55:57;;;;;;;3.03;2.70;;;;;;;;;;4971023;28;20715;-64
2023/07/16 11:58:24;;;;;;;3.17;2.87;;;;;;;;;;4970560;28;20185;-62
2023/07/16 12:00:53;;;;;;;5.30;3.03;;;;;;;;;;4971210;28;20202;-64
2023/07/16 12:03:37;;;;;;;4.23;3.03;;;;;;;;;;4956039;28;20169;-65
2023/07/16 12:06:04;;;;;;;3.20;2.90;;;;;;;;;;4970084;28;20194;-65
2023/07/16 12:08:48;;;;;;;6.63;2.90;;;;;;;;;;4970642;28;20510;-65
2023/07/16 12:11:15;;;;;;;4.43;2.90;;;;;;;;;;4970331;28;20732;-65
2023/07/16 12:13:42;;;;;;;3.93;2.67;;;;;;;;;;4969669;28;20193;-65
2023/07/16 12:16:09;;;;;;;3.10;2.43;;;;;;;;;;4970490;28;20657;-67
2023/07/16 12:18:35;;;;;;;3.90;3.03;;;;;;;;;;4971268;28;20268;-65
2023/07/16 12:21:02;;;;;;;2.93;2.50;;;;;;;;;;4970021;28;20208;-65
2023/07/16 12:23:29;;;;;;;4.83;3.73;;;;;;;;;;4970256;28;20249;-65
2023/07/16 12:25:56;;;;;;;3.67;3.00;;;;;;;;;;4970271;28;20202;-65
2023/07/16 12:28:23;;;;;;;3.03;2.63;;;;;;;;;;4969969;28;20200;-66
2023/07/16 12:30:50;;;;;;;4.03;2.67;;;;;;;;;;4970126;28;20865;-66
2023/07/16 12:33:17;;;;;;;2.70;2.43;;;;;;;;;;4970789;28;20589;-64
2023/07/16 12:36:02;;;;;;;3.63;3.20;;;;;;;;;;4952714;28;20192;-65
2023/07/16 12:38:29;;;;;;;3.33;2.60;;;;;;;;;;4970482;28;20244;-64
2023/07/16 12:40:57;;;;;;;3.53;2.77;;;;;;;;;;4970211;28;20226;-63
2023/07/16 12:43:24;;;;;;;2.87;2.63;;;;;;;;;;4969796;28;20178;-64
2023/07/16 12:45:51;;;;;;;2.43;2.23;;;;;;;;;;4970482;28;20201;-65
2023/07/16 12:48:18;;;;;;;3.37;1.90;;;;;;;;;;4970752;28;20194;-66
2023/07/16 12:50:44;;;;;;;5.00;2.97;;;;;;;;;;4969286;28;20209;-66
2023/07/16 12:53:12;;;;;;;3.00;2.40;;;;;;;;;;4969683;28;20278;-66
2023/07/16 12:55:39;;;;;;;3.87;2.20;;;;;;;;;;4968424;28;20208;-66
2023/07/16 12:58:06;;;;;;;3.27;2.00;;;;;;;;;;4966813;28;20840;-67
2023/07/16 13:00:33;;;;;;;2.27;2.07;;;;;;;;;;4969971;28;20197;-67
2023/07/16 13:03:18;;;;;;;2.63;2.20;;;;;;;;;;4969681;28;20180;-67
2023/07/16 13:05:45;;;;;;;4.13;2.43;;;;;;;;;;4968793;28;20549;-67
2023/07/16 13:08:11;;;;;;;2.50;2.30;;;;;;;;;;4969508;28;20198;-66
2023/07/16 13:10:39;;;;;;;2.50;2.27;;;;;;;;;;4969394;28;20200;-66
2023/07/16 13:13:05;;;;;;;3.83;2.37;;;;;;;;;;4969252;28;20699;-66
2023/07/16 13:15:32;;;;;;;2.70;2.17;;;;;;;;;;4952371;28;20213;-66
2023/07/16 13:17:59;;;;;;;2.77;2.20;;;;;;;;;;4969609;28;20182;-66
2023/07/16 13:20:25;;;;;;;2.40;2.20;;;;;;;;;;4968312;28;20743;-66
2023/07/16 13:22:52;;;;;;;2.97;2.40;;;;;;;;;;4948733;29;20712;-67
2023/07/16 13:25:19;;;;;;;3.10;2.30;;;;;;;;;;4958229;28;20256;-67
2023/07/16 13:27:48;;;;;;;2.53;2.10;;;;;;;;;;4969610;28;20268;-67
2023/07/16 13:30:15;;;;;;;2.60;2.40;;;;;;;;;;4968948;28;20211;-66
2023/07/16 13:32:42;;;;;;;3.00;2.23;;;;;;;;;;4969085;28;20322;-66
2023/07/16 13:35:09;;;;;;;2.67;2.30;;;;;;;;;;4969308;28;20200;-66
2023/07/16 13:37:36;;;;;;;3.13;2.33;;;;;;;;;;4969023;28;20238;-66
2023/07/16 13:40:03;;;;;;;2.93;2.20;;;;;;;;;;4968531;28;20260;-66
2023/07/16 13:42:30;;;;;;;2.30;2.10;;;;;;;;;;4968627;28;20204;-66
2023/07/16 13:44:59;;;;;;;2.43;2.10;;;;;;;;;;4968308;28;20261;-66
2023/07/16 13:47:26;;;;;;;2.60;2.00;;;;;;;;;;4968138;28;20262;-67
2023/07/16 13:49:55;;;;;;;2.50;2.00;;;;;;;;;;4968494;28;20196;-68
2023/07/16 13:52:23;;;;;;;10.27;2.60;;;;;;;;;;4951757;28;21049;-62
2023/07/16 13:54:50;;;;;;;2.30;2.10;;;;;;;;;;4968868;28;20208;-66
2023/07/16 13:57:17;;;;;;;4.33;2.30;;;;;;;;;;4968488;28;20196;-65
2023/07/16 13:59:44;;;;;;;4.13;2.30;;;;;;;;;;4965583;28;20247;-65
2023/07/16 14:02:10;;;;;;;2.63;2.13;;;;;;;;;;4968770;28;20198;-65
2023/07/16 14:04:38;;;;;;;3.97;2.17;;;;;;;;;;4968394;28;20894;-65
2023/07/16 14:07:05;;;;;;;3.57;1.90;;;;;;;;;;4968190;28;20684;-65
2023/07/16 14:09:31;;;;;;;2.50;1.90;;;;;;;;;;4968346;28;20212;-66
2023/07/16 14:11:58;;;;;;;3.10;2.00;;;;;;;;;;4967753;28;20235;-65
2023/07/16 14:14:43;;;;;;;2.27;2.03;;;;;;;;;;4971355;28;20320;-65
2023/07/16 14:17:10;;;;;;;2.77;2.23;;;;;;;;;;4970897;28;20564;-65
2023/07/16 14:19:37;;;;;;;3.07;2.50;;;;;;;;;;4971278;28;20212;-65
2023/07/16 14:22:05;;;;;;;2.17;1.77;;;;;;;;;;4971193;28;20256;-65
2023/07/16 14:24:31;;;;;;;2.60;2.10;;;;;;;;;;4971160;28;20604;-65
2023/07/16 14:27:00;;;;;;;3.30;1.90;;;;;;;;;;4954334;28;20189;-65
2023/07/16 14:29:28;;;;;;;6.17;2.10;;;;;;;;;;4967120;28;20193;-66
2023/07/16 14:31:55;;;;;;;3.40;2.13;;;;;;;;;;4967164;28;20291;-65
2023/07/16 14:34:22;;;;;;;2.97;1.90;;;;;;;;;;4967370;28;20738;-65
2023/07/16 14:36:49;;;;;;;2.83;1.90;;;;;;;;;;4967989;28;20217;-65
2023/07/16 14:39:16;;;;;;;2.23;2.00;;;;;;;;;;4967539;28;20574;-66
2023/07/16 14:41:43;;;;;;;2.27;2.07;;;;;;;;;;4967290;28;20261;-66
2023/07/16 14:44:10;;;;;;;2.80;1.93;;;;;;;;;;4967208;28;20686;-65
2023/07/16 14:46:37;;;;;;;4.10;2.17;;;;;;;;;;4967855;28;20203;-66
2023/07/16 14:49:21;;;;;;;1.90;1.73;;;;;;;;;;4967671;28;20893;-66
2023/07/16 14:51:48;;;;;;;4.53;1.90;;;;;;;;;;4967917;28;20682;-66
2023/07/16 14:54:33;;;;;;;4.20;1.90;;;;;;;;;;4967867;28;20176;-66
2023/07/16 14:57:00;;;;;;;3.13;2.13;;;;;;;;;;4967558;28;20212;-66
2023/07/16 14:59:27;;;;;;;2.33;1.93;;;;;;;;;;4967172;28;20252;-65
2023/07/16 15:01:54;;;;;;;2.43;1.80;;;;;;;;;;4967383;28;20208;-65
2023/07/16 15:04:21;;;;;;;4.10;1.97;;;;;;;;;;4964189;28;20365;-65
2023/07/16 15:06:49;;;;;;;2.53;1.80;;;;;;;;;;4950221;28;20288;-65
2023/07/16 15:09:16;;;;;;;3.63;1.73;;;;;;;;;;4967462;28;20634;-65
2023/07/16 15:11:43;;;;;;;2.73;2.53;;;;;;;;;;4967071;28;20286;-65
2023/07/16 15:14:11;;;;;;;3.60;2.33;;;;;;;;;;4967715;28;20193;-65
2023/07/16 15:16:39;;;;;;;2.90;2.20;;;;;;;;;;4967884;28;20300;-65
2023/07/16 15:19:07;;;;;;;2.00;1.80;;;;;;;;;;4966316;28;20203;-65
2023/07/16 15:21:38;;;;;;;2.57;2.00;;;;;;;;;;4967684;28;20192;-64
2023/07/16 15:24:08;;;;;;;2.47;1.83;;;;;;;;;;4967021;28;20240;-65
2023/07/16 15:26:34;;;;;;;2.93;2.30;;;;;;;;;;4967522;28;20297;-65
2023/07/16 15:29:01;;;;;;;3.57;2.20;;;;;;;;;;4968152;28;20295;-66
2023/07/16 15:31:28;;;;;;;2.93;2.23;;;;;;;;;;4967946;28;20199;-66